createdAt,value
2023-05-08T13:07:05.769Z,10.57
2023-05-08T13:09:33.355Z,10.43
2023-05-08T13:12:00.950Z,10.50
2023-05-08T13:14:29.140Z,9.27
2023-05-08T13:16:56.668Z,10.50
2023-05-08T13:19:24.029Z,10.07
2023-05-08T13:21:52.857Z,9.80
2023-05-08T13:24:20.457Z,10.47
2023-05-08T13:26:47.843Z,11.20
2023-05-08T13:29:15.385Z,10.77
2023-05-08T13:31:42.806Z,10.40
2023-05-08T13:34:10.327Z,10.70
2023-05-08T13:36:37.802Z,9.43
2023-05-08T13:39:05.488Z,10.57
2023-05-08T13:41:32.844Z,11.20
2023-05-08T13:44:00.480Z,10.77
2023-05-08T13:46:27.990Z,10.23
2023-05-08T13:48:55.531Z,10.87
2023-05-08T13:51:23.131Z,10.87
2023-05-08T13:53:50.623Z,11.00
2023-05-08T13:56:18.089Z,10.97
2023-05-08T13:59:12.221Z,10.30
2023-05-08T14:01:39.598Z,9.37
2023-05-08T14:04:07.230Z,10.03
2023-05-08T14:06:34.716Z,9.30
2023-05-08T14:09:02.121Z,10.07
2023-05-08T14:11:29.635Z,10.10
2023-05-08T14:13:57.532Z,10.17
2023-05-08T14:16:25.064Z,9.33
2023-05-08T14:18:53.562Z,8.90
2023-05-08T14:21:20.959Z,8.03
2023-05-08T14:23:48.337Z,8.50
2023-05-08T14:26:15.920Z,9.97
2023-05-08T14:28:43.539Z,7.53
2023-05-08T14:31:12.229Z,8.27
2023-05-08T14:33:39.592Z,7.53
2023-05-08T14:36:07.332Z,8.10
2023-05-08T14:38:34.724Z,7.07
2023-05-08T14:41:04.551Z,7.50
2023-05-08T14:43:32.290Z,7.07
2023-05-08T14:46:00.602Z,7.17
2023-05-08T14:48:28.251Z,7.77
2023-05-08T14:50:57.418Z,7.43
2023-05-08T14:53:26.031Z,7.53
2023-05-08T14:55:53.636Z,6.80
2023-05-08T14:58:21.374Z,6.80
2023-05-08T15:00:48.847Z,6.90
2023-05-08T15:03:16.815Z,6.90
2023-05-08T15:05:44.535Z,7.27
2023-05-08T15:08:12.231Z,7.20
2023-05-08T15:10:39.752Z,7.83
2023-05-08T15:13:07.437Z,7.70
2023-05-08T15:15:35.021Z,7.73
2023-05-08T15:18:02.699Z,7.03
2023-05-08T15:20:30.232Z,6.40
2023-05-08T15:29:32.933Z,5.33
2023-05-08T15:50:59.081Z,6.47
2023-05-08T15:53:26.688Z,6.60
2023-05-08T15:55:55.529Z,6.10
2023-05-08T15:58:23.348Z,6.90
2023-05-08T16:00:52.261Z,6.70
2023-05-08T16:03:19.830Z,6.50
2023-05-08T16:05:47.268Z,6.10
2023-05-08T16:08:15.535Z,6.47
2023-05-08T16:10:42.959Z,7.37
2023-05-08T16:13:12.535Z,6.20
2023-05-08T16:15:40.303Z,6.80
2023-05-08T16:18:08.145Z,6.27
2023-05-08T16:20:36.492Z,6.43
2023-05-08T16:23:05.215Z,6.60
2023-05-08T16:25:33.926Z,5.63
2023-05-08T16:28:02.220Z,6.27
2023-05-08T16:30:30.836Z,7.00
2023-05-08T16:32:58.488Z,6.93
2023-05-08T16:35:26.392Z,6.30
2023-05-08T16:37:54.407Z,6.60
2023-05-08T16:40:22.176Z,6.27
2023-05-08T16:42:49.755Z,6.80
2023-05-08T16:45:17.332Z,6.83
2023-05-08T16:47:44.836Z,7.47
2023-05-08T16:50:12.958Z,8.77
2023-05-08T16:52:40.614Z,7.70
2023-05-08T16:55:08.804Z,7.60
2023-05-08T16:57:36.233Z,8.47
2023-05-08T17:00:05.689Z,7.90
2023-05-08T17:02:33.229Z,8.13
2023-05-08T17:05:01.978Z,7.90
2023-05-08T17:07:29.379Z,9.03
2023-05-08T17:09:57.649Z,9.10
2023-05-08T17:12:25.611Z,8.90
2023-05-08T17:14:53.447Z,8.00
2023-05-08T17:17:20.976Z,9.07
2023-05-08T17:19:48.340Z,8.23
2023-05-08T17:22:16.221Z,8.07
2023-05-08T17:24:44.143Z,8.77
2023-05-08T17:27:11.827Z,9.87
2023-05-08T17:54:51.997Z,8.13
2023-05-08T17:57:19.549Z,8.67
2023-05-08T17:59:46.959Z,9.20
2023-05-08T18:02:14.467Z,9.30
2023-05-08T18:04:41.994Z,9.53
2023-05-08T18:07:09.447Z,9.73
2023-05-08T18:09:37.028Z,8.30
2023-05-08T18:12:04.520Z,9.70
2023-05-08T18:14:32.465Z,8.67
2023-05-08T18:17:00.682Z,8.77
2023-05-08T18:19:28.036Z,8.50
2023-05-08T18:21:55.356Z,8.57
2023-05-08T18:24:23.163Z,7.90
2023-05-08T18:26:52.326Z,9.27
2023-05-08T18:29:20.153Z,7.90
2023-05-08T18:31:48.342Z,8.70
2023-05-08T18:34:16.628Z,8.70
2023-05-08T18:36:43.986Z,8.77
2023-05-08T18:39:11.710Z,9.90
2023-05-08T18:41:39.165Z,9.60
2023-05-08T18:44:06.616Z,9.10
2023-05-08T18:46:34.406Z,8.80
2023-05-08T18:49:02.206Z,9.67
2023-05-08T18:51:29.471Z,9.77
2023-05-08T18:53:57.226Z,9.90
2023-05-08T18:56:24.552Z,9.20
2023-05-08T18:58:51.911Z,9.13
2023-05-08T19:01:20.992Z,9.37
2023-05-08T19:03:48.870Z,10.03
2023-05-08T19:06:17.032Z,9.57
2023-05-08T19:08:44.506Z,8.67
2023-05-08T19:11:11.888Z,9.23
2023-05-08T19:13:39.493Z,9.33
2023-05-08T19:16:06.954Z,10.53
2023-05-08T19:18:34.973Z,10.20
2023-05-08T19:21:03.119Z,10.80
2023-05-08T19:23:30.555Z,10.70
2023-05-08T19:26:01.775Z,10.37
2023-05-08T19:28:29.378Z,9.93
2023-05-08T19:30:58.358Z,10.10
2023-05-08T19:33:25.918Z,10.67
2023-05-08T19:35:53.309Z,10.13
2023-05-08T19:38:20.769Z,10.67
2023-05-08T19:40:55.795Z,10.13
2023-05-08T19:43:26.010Z,10.13
2023-05-08T19:45:53.485Z,12.30
2023-05-08T19:48:21.392Z,11.40
2023-05-08T19:50:48.812Z,10.50
2023-05-08T19:53:16.333Z,9.60
2023-05-08T19:55:44.046Z,14.97
2023-05-08T19:58:11.594Z,10.83
2023-05-08T20:00:38.961Z,11.53
2023-05-08T20:03:06.319Z,10.97
2023-05-08T20:05:34.283Z,10.47
2023-05-08T20:08:01.780Z,11.67
2023-05-08T20:10:29.221Z,11.50
2023-05-08T20:12:56.568Z,10.83
2023-05-08T20:15:24.734Z,12.53
2023-05-08T20:17:52.357Z,12.30
2023-05-08T20:20:19.776Z,11.33
2023-05-08T20:22:47.215Z,11.30
2023-05-08T20:25:15.138Z,10.87
2023-05-08T20:27:42.488Z,10.80
2023-05-08T20:30:10.087Z,10.87
2023-05-08T20:32:37.571Z,10.97
2023-05-08T20:35:05.448Z,10.60
2023-05-08T20:37:32.822Z,10.63
2023-05-08T20:40:01.975Z,10.10
2023-05-08T20:42:31.175Z,10.27
2023-05-08T20:45:12.812Z,10.17
2023-05-08T20:47:44.869Z,10.73
2023-05-08T20:50:12.934Z,10.13
2023-05-08T20:52:42.437Z,10.07
2023-05-08T20:55:11.070Z,10.87
2023-05-08T20:57:39.202Z,11.60
2023-05-08T21:03:12.369Z,12.10
2023-05-08T21:05:39.821Z,11.63
2023-05-08T21:08:08.670Z,12.43
2023-05-08T21:24:21.539Z,10.83
2023-05-08T21:26:49.257Z,11.00
2023-05-08T21:32:20.396Z,11.70
